createdAt,value
2023-03-30T00:00:52.813Z,12.80
2023-03-30T00:03:19.777Z,12.80
2023-03-30T00:05:46.818Z,12.80
2023-03-30T00:08:18.385Z,12.90
2023-03-30T00:10:46.082Z,12.90
2023-03-30T00:13:13.406Z,12.90
2023-03-30T00:15:41.208Z,12.80
2023-03-30T00:18:09.292Z,12.80
2023-03-30T00:20:37.760Z,12.90
2023-03-30T00:23:04.836Z,12.80
2023-03-30T00:25:31.706Z,12.80
2023-03-30T00:27:58.613Z,12.90
2023-03-30T00:30:25.896Z,12.90
2023-03-30T00:32:54.007Z,12.90
2023-03-30T00:35:21.113Z,12.90
2023-03-30T00:37:49.636Z,12.90
2023-03-30T00:40:20.682Z,13.00
2023-03-30T00:42:48.770Z,13.00
2023-03-30T00:45:24.046Z,13.00
2023-03-30T00:48:02.830Z,13.10
2023-03-30T00:50:36.953Z,13.20
2023-03-30T00:53:11.018Z,13.20
2023-03-30T00:55:39.671Z,13.20
2023-03-30T00:58:10.002Z,13.20
2023-03-30T01:00:39.334Z,13.20
2023-03-30T01:03:32.960Z,13.30
2023-03-30T01:06:02.244Z,13.40
2023-03-30T01:08:34.180Z,13.40
2023-03-30T01:11:02.243Z,13.40
2023-03-30T01:13:30.931Z,13.40
2023-03-30T01:16:05.454Z,13.40
2023-03-30T01:18:48.382Z,13.40
2023-03-30T01:21:42.370Z,13.40
2023-03-30T01:24:48.994Z,13.50
2023-03-30T01:27:46.193Z,13.40
2023-03-30T01:30:47.704Z,13.40
2023-03-30T01:33:52.234Z,13.40
2023-03-30T01:36:36.043Z,13.50
2023-03-30T01:39:20.196Z,13.50
2023-03-30T01:42:06.474Z,13.50
2023-03-30T01:44:56.991Z,13.50
2023-03-30T01:47:26.823Z,13.60
2023-03-30T01:50:09.602Z,13.60
2023-03-30T01:53:14.343Z,13.60
2023-03-30T01:55:57.813Z,13.70
2023-03-30T01:58:46.988Z,13.70
2023-03-30T02:04:21.559Z,13.60
2023-03-30T02:06:54.337Z,13.70
2023-03-30T02:09:24.114Z,13.60
2023-03-30T02:11:54.139Z,13.70
2023-03-30T02:14:26.359Z,13.60
2023-03-30T02:17:02.158Z,13.50
2023-03-30T02:19:30.199Z,13.40
2023-03-30T02:21:57.057Z,13.30
2023-03-30T02:24:29.021Z,13.20
2023-03-30T02:26:55.974Z,13.20
2023-03-30T02:29:22.975Z,13.20
2023-03-30T02:31:53.897Z,13.30
2023-03-30T02:34:51.310Z,13.40
2023-03-30T02:37:42.947Z,13.40
2023-03-30T02:40:47.737Z,13.40
2023-03-30T02:43:51.254Z,13.40
2023-03-30T02:46:47.103Z,13.30
2023-03-30T02:49:38.345Z,13.10
2023-03-30T02:52:33.867Z,13.00
2023-03-30T02:55:06.963Z,12.90
2023-03-30T02:58:15.806Z,12.80
2023-03-30T03:01:01.778Z,12.80
2023-03-30T03:03:43.559Z,12.70
2023-03-30T03:06:14.623Z,12.60
2023-03-30T03:08:50.546Z,12.60
2023-03-30T03:11:28.686Z,12.40
2023-03-30T03:13:55.830Z,12.40
2023-03-30T03:16:24.108Z,12.40
2023-03-30T03:19:05.100Z,12.30
2023-03-30T03:21:31.951Z,12.20
2023-03-30T03:23:58.906Z,12.10
2023-03-30T03:26:38.032Z,12.10
2023-03-30T03:29:04.996Z,11.90
2023-03-30T03:31:31.876Z,11.90
2023-03-30T03:33:59.635Z,11.80
2023-03-30T03:36:45.438Z,11.80
2023-03-30T03:39:12.556Z,11.70
2023-03-30T03:41:39.763Z,11.60
2023-03-30T03:44:07.384Z,11.60
2023-03-30T03:46:34.296Z,11.60
2023-03-30T03:49:01.394Z,11.70
2023-03-30T03:51:29.381Z,11.80
2023-03-30T03:53:56.775Z,11.90
2023-03-30T03:56:25.206Z,12.00
2023-03-30T03:58:52.043Z,12.00
2023-03-30T04:01:19.127Z,11.90
2023-03-30T04:03:46.533Z,11.90
2023-03-30T04:06:13.335Z,11.80
2023-03-30T04:08:40.153Z,11.80
2023-03-30T04:11:26.710Z,11.80
2023-03-30T04:14:08.144Z,11.80
2023-03-30T04:16:44.280Z,11.70
2023-03-30T04:19:25.273Z,11.90
2023-03-30T04:21:59.732Z,12.00
2023-03-30T04:24:50.349Z,12.10
2023-03-30T04:27:42.965Z,12.40
2023-03-30T04:30:30.608Z,12.50
2023-03-30T04:33:17.021Z,12.60
2023-03-30T04:35:46.859Z,12.80
2023-03-30T04:38:36.695Z,13.00
2023-03-30T04:41:16.626Z,13.10
2023-03-30T04:43:57.661Z,13.20
2023-03-30T04:46:46.111Z,13.30
2023-03-30T04:49:51.614Z,13.40
2023-03-30T04:52:36.922Z,13.50
2023-03-30T04:55:24.060Z,13.60
2023-03-30T04:58:12.425Z,13.60
2023-03-30T05:00:57.256Z,13.70
2023-03-30T05:03:44.625Z,13.60
2023-03-30T05:06:30.164Z,13.60
2023-03-30T05:09:24.880Z,13.40
2023-03-30T05:12:18.016Z,13.30
2023-03-30T05:14:53.989Z,13.20
2023-03-30T05:17:56.771Z,13.10
2023-03-30T05:20:26.251Z,13.00
2023-03-30T05:23:03.688Z,12.90
2023-03-30T05:25:55.096Z,12.80
2023-03-30T05:28:47.950Z,12.80
2023-03-30T05:31:33.768Z,12.80
2023-03-30T05:34:19.193Z,12.80
2023-03-30T05:36:46.232Z,12.80
2023-03-30T05:39:36.326Z,12.90
2023-03-30T05:42:21.829Z,12.90
2023-03-30T05:45:09.463Z,12.90
2023-03-30T05:47:48.479Z,12.80
2023-03-30T05:50:33.237Z,12.80
2023-03-30T05:53:03.645Z,12.80
2023-03-30T05:55:46.669Z,12.80
2023-03-30T05:58:39.308Z,12.70
2023-03-30T06:01:16.764Z,12.80
2023-03-30T06:03:45.848Z,12.80
2023-03-30T06:06:13.719Z,12.90
2023-03-30T06:08:42.003Z,13.00
2023-03-30T06:11:14.150Z,13.10
2023-03-30T06:13:48.898Z,13.10
2023-03-30T06:16:17.096Z,13.20
2023-03-30T06:18:44.504Z,13.30
2023-03-30T06:21:14.149Z,13.40
2023-03-30T06:24:00.211Z,13.40
2023-03-30T06:26:29.629Z,13.40
2023-03-30T06:28:57.432Z,13.50
2023-03-30T06:31:24.988Z,13.50
2023-03-30T06:34:03.380Z,13.60
2023-03-30T06:36:44.248Z,13.60
2023-03-30T06:39:13.735Z,13.60
2023-03-30T06:41:41.063Z,13.60
2023-03-30T06:44:21.315Z,13.70
2023-03-30T06:46:48.200Z,13.70
2023-03-30T06:49:15.676Z,13.80
2023-03-30T06:51:42.523Z,13.80
2023-03-30T06:54:09.879Z,13.80
2023-03-30T06:56:38.948Z,13.80
2023-03-30T06:59:09.494Z,13.80
2023-03-30T07:02:00.405Z,13.80
2023-03-30T07:04:47.380Z,13.80
2023-03-30T07:07:47.876Z,13.80
2023-03-30T07:10:15.312Z,13.60
2023-03-30T07:12:43.520Z,13.50
2023-03-30T07:15:11.561Z,13.40
2023-03-30T07:17:39.504Z,13.20
2023-03-30T07:20:08.342Z,13.00
2023-03-30T07:22:47.079Z,12.90
2023-03-30T07:25:15.601Z,12.70
2023-03-30T07:27:49.333Z,12.70
2023-03-30T07:30:21.827Z,12.40
2023-03-30T07:32:53.882Z,12.30
2023-03-30T07:35:22.780Z,12.20
2023-03-30T07:37:50.935Z,12.20
2023-03-30T07:40:19.859Z,12.20
2023-03-30T07:42:48.178Z,12.20
2023-03-30T07:45:16.651Z,12.10
2023-03-30T07:47:45.412Z,12.10
2023-03-30T07:50:12.939Z,12.00
2023-03-30T07:52:39.794Z,12.00
2023-03-30T07:55:07.828Z,12.00
2023-03-30T07:57:42.556Z,12.00
2023-03-30T08:00:10.572Z,12.00
2023-03-30T08:03:00.298Z,12.00
2023-03-30T08:05:28.554Z,12.00
2023-03-30T08:08:16.792Z,12.00
2023-03-30T08:10:44.643Z,11.90
2023-03-30T08:13:13.213Z,12.00
2023-03-30T08:15:40.172Z,12.00
2023-03-30T08:18:08.439Z,12.10
2023-03-30T08:20:37.876Z,12.10
2023-03-30T08:23:06.275Z,12.10
2023-03-30T08:25:33.132Z,12.10
2023-03-30T08:28:02.259Z,12.20
2023-03-30T08:30:29.480Z,12.20
2023-03-30T08:32:57.267Z,12.30
2023-03-30T08:35:27.467Z,12.30
2023-03-30T08:37:55.497Z,12.30
2023-03-30T08:40:23.223Z,12.40
2023-03-30T08:43:32.224Z,12.50
2023-03-30T08:46:03.193Z,12.50
2023-03-30T08:48:37.467Z,12.60
2023-03-30T08:51:31.751Z,12.70
2023-03-30T08:54:05.709Z,12.70
2023-03-30T08:56:50.529Z,12.80
2023-03-30T08:59:52.354Z,12.80
2023-03-30T09:02:21.575Z,12.80
2023-03-30T09:05:30.090Z,12.90
2023-03-30T09:08:22.809Z,12.90
2023-03-30T09:10:59.038Z,13.00
2023-03-30T09:13:31.286Z,13.00
2023-03-30T09:16:20.518Z,13.10
2023-03-30T09:18:52.780Z,13.20
2023-03-30T09:21:22.887Z,13.30
2023-03-30T09:23:50.985Z,13.30
2023-03-30T09:26:35.568Z,13.40
2023-03-30T09:29:20.777Z,13.40
2023-03-30T09:32:12.602Z,13.50
2023-03-30T09:35:02.859Z,13.50
2023-03-30T09:37:31.445Z,13.50
2023-03-30T09:40:11.254Z,13.50
2023-03-30T09:42:52.261Z,13.60
2023-03-30T09:45:43.959Z,13.60
2023-03-30T09:48:11.705Z,13.70
2023-03-30T09:50:56.066Z,13.70
2023-03-30T09:54:26.932Z,13.70
2023-03-30T09:56:59.347Z,14.00
2023-03-30T09:59:37.372Z,14.10
2023-03-30T10:02:15.987Z,14.20
2023-03-30T10:05:17.220Z,14.30
2023-03-30T10:07:54.713Z,14.50
2023-03-30T10:10:40.151Z,14.70
2023-03-30T10:13:23.835Z,14.70
2023-03-30T10:15:59.892Z,14.80
2023-03-30T10:18:42.221Z,14.90
2023-03-30T10:24:15.735Z,15.20
2023-03-30T10:26:47.060Z,15.30
2023-03-30T10:29:18.357Z,15.30
2023-03-30T10:31:47.973Z,15.40
2023-03-30T10:34:35.820Z,15.30
2023-03-30T10:37:10.890Z,15.20
2023-03-30T10:39:42.355Z,15.30
2023-03-30T10:42:16.106Z,15.40
2023-03-30T10:44:56.335Z,15.50
2023-03-30T10:47:37.651Z,15.50
2023-03-30T10:50:19.400Z,15.50
2023-03-30T10:53:01.852Z,15.40
2023-03-30T10:56:15.092Z,15.40
2023-03-30T10:58:54.811Z,15.40
2023-03-30T11:01:49.753Z,15.40
2023-03-30T11:04:28.555Z,15.40
2023-03-30T11:06:59.101Z,15.40
2023-03-30T11:09:35.949Z,15.40
2023-03-30T11:12:07.928Z,15.40
2023-03-30T11:15:11.236Z,15.60
2023-03-30T11:17:51.168Z,15.60
2023-03-30T11:20:29.235Z,15.60
2023-03-30T11:23:16.501Z,15.60
2023-03-30T11:26:05.493Z,15.50
2023-03-30T11:28:47.360Z,15.70
2023-03-30T11:31:51.484Z,15.90
2023-03-30T11:35:06.128Z,16.00
2023-03-30T11:37:49.656Z,16.00
2023-03-30T11:40:17.852Z,15.90
2023-03-30T11:42:48.840Z,16.00
2023-03-30T11:45:46.198Z,16.10
2023-03-30T11:48:19.280Z,16.10
2023-03-30T11:51:02.309Z,16.30
2023-03-30T11:54:11.208Z,16.40
2023-03-30T11:56:59.130Z,16.50
2023-03-30T12:00:01.774Z,16.60
2023-03-30T12:03:05.596Z,16.50
2023-03-30T12:05:38.423Z,16.60
2023-03-30T12:08:48.723Z,16.50
2023-03-30T12:11:23.852Z,16.70
2023-03-30T12:13:52.431Z,16.80
2023-03-30T12:16:33.447Z,16.80
2023-03-30T12:19:16.055Z,16.80
2023-03-30T12:22:19.732Z,16.70
2023-03-30T12:24:52.591Z,16.70
2023-03-30T12:27:19.536Z,16.60
2023-03-30T12:32:28.234Z,16.50
2023-03-30T12:34:57.543Z,16.50
2023-03-30T12:37:33.495Z,16.60
2023-03-30T12:40:10.512Z,16.60
2023-03-30T12:42:46.458Z,16.70
2023-03-30T12:45:25.522Z,16.60
2023-03-30T12:48:20.761Z,16.60
2023-03-30T12:51:05.506Z,16.70
2023-03-30T12:54:02.901Z,16.80
2023-03-30T12:56:49.164Z,16.80
2023-03-30T12:59:45.220Z,16.80
2023-03-30T13:02:38.343Z,16.90
2023-03-30T13:05:18.787Z,16.90
2023-03-30T13:07:46.243Z,16.90
2023-03-30T13:10:31.680Z,16.90
2023-03-30T13:13:01.539Z,16.90
2023-03-30T13:15:47.798Z,16.90
2023-03-30T13:18:14.627Z,17.00
2023-03-30T13:20:47.494Z,17.10
2023-03-30T13:23:14.436Z,17.20
2023-03-30T13:25:58.793Z,17.00
2023-03-30T13:28:54.930Z,16.90
2023-03-30T13:31:39.701Z,16.90
2023-03-30T13:34:20.702Z,16.80
2023-03-30T13:37:14.611Z,16.80
2023-03-30T13:40:04.816Z,16.80
2023-03-30T13:43:09.753Z,16.80
2023-03-30T13:45:45.919Z,16.80
2023-03-30T13:48:44.547Z,16.80
2023-03-30T13:51:22.999Z,16.80
2023-03-30T13:54:14.072Z,16.80
2023-03-30T13:56:48.290Z,16.80
2023-03-30T13:59:29.365Z,16.90
2023-03-30T14:02:01.561Z,16.70
2023-03-30T14:04:34.345Z,16.40
2023-03-30T14:07:19.854Z,15.40
